createdAt,value
2018-03-11T00:00:24.854Z,13.68
2018-03-11T00:02:56.791Z,12.50
2018-03-11T00:05:28.483Z,12.48
2018-03-11T00:07:59.701Z,12.25
2018-03-11T00:10:30.843Z,13.30
2018-03-11T00:13:02.367Z,13.45
2018-03-11T00:15:33.464Z,14.43
2018-03-11T00:18:04.939Z,13.00
2018-03-11T00:20:35.992Z,12.20
2018-03-11T00:23:06.737Z,12.20
2018-03-11T00:25:37.935Z,11.95
2018-03-11T00:28:10.836Z,12.98
2018-03-11T00:30:41.915Z,12.07
2018-03-11T00:33:12.676Z,12.10
2018-03-11T00:35:43.549Z,11.82
2018-03-11T00:38:15.358Z,12.43
2018-03-11T00:40:47.377Z,12.37
2018-03-11T00:43:19.657Z,12.15
2018-03-11T00:45:52.510Z,11.52
2018-03-11T00:48:23.687Z,11.45
2018-03-11T00:50:55.030Z,11.68
2018-03-11T00:53:26.773Z,11.82
2018-03-11T00:55:58.608Z,11.95
2018-03-11T00:58:30.337Z,12.23
2018-03-11T01:01:02.009Z,12.23
2018-03-11T01:03:34.758Z,13.30
2018-03-11T01:06:06.049Z,11.93
2018-03-11T01:08:37.138Z,13.70
2018-03-11T01:11:09.358Z,13.68
2018-03-11T01:13:40.166Z,13.68
2018-03-11T01:16:11.335Z,14.02
2018-03-11T01:18:43.576Z,14.80
2018-03-11T01:21:14.231Z,14.18
2018-03-11T01:23:46.445Z,13.90
2018-03-11T01:26:18.525Z,13.48
2018-03-11T01:28:54.461Z,14.20
2018-03-11T01:31:25.003Z,13.50
2018-03-11T01:33:56.043Z,14.43
2018-03-11T01:36:26.790Z,14.27
2018-03-11T01:39:02.548Z,14.63
2018-03-11T01:41:33.741Z,14.13
2018-03-11T01:44:04.483Z,15.23
2018-03-11T01:46:36.311Z,15.40
2018-03-11T01:49:07.234Z,16.10
2018-03-11T01:51:38.846Z,15.52
2018-03-11T01:54:09.621Z,17.00
2018-03-11T01:56:40.512Z,15.57
2018-03-11T02:02:12.276Z,17.25
2018-03-11T02:04:43.094Z,18.65
2018-03-11T02:07:13.259Z,17.98
2018-03-11T02:09:44.091Z,17.50
2018-03-11T02:12:15.020Z,17.40
2018-03-11T02:14:45.840Z,16.62
2018-03-11T02:17:16.679Z,16.70
2018-03-11T02:19:47.814Z,17.90
2018-03-11T02:22:19.064Z,18.05
2018-03-11T02:24:51.321Z,16.55
2018-03-11T02:27:23.316Z,17.87
2018-03-11T02:29:54.483Z,15.60
2018-03-11T02:32:25.342Z,17.62
2018-03-11T02:34:55.848Z,18.35
2018-03-11T02:37:25.856Z,18.42
2018-03-11T02:39:55.888Z,19.33
2018-03-11T02:42:26.798Z,20.90
2018-03-11T02:44:57.573Z,20.12
2018-03-11T02:47:27.906Z,21.12
2018-03-11T02:49:58.744Z,21.25
2018-03-11T02:52:28.961Z,19.33
2018-03-11T02:55:00.286Z,20.80
2018-03-11T02:57:30.161Z,20.17
2018-03-11T03:00:00.410Z,21.23
2018-03-11T03:02:30.830Z,22.73
2018-03-11T03:05:01.378Z,20.80
2018-03-11T03:07:32.067Z,21.90
2018-03-11T03:10:02.811Z,22.45
2018-03-11T03:12:32.479Z,19.85
2018-03-11T03:15:02.486Z,21.67
2018-03-11T03:17:32.563Z,24.12
2018-03-11T03:20:06.762Z,22.73
2018-03-11T03:22:36.633Z,22.77
2018-03-11T03:25:06.647Z,22.55
2018-03-11T03:27:36.953Z,24.02
2018-03-11T03:30:12.035Z,22.67
2018-03-11T03:32:42.751Z,22.77
2018-03-11T03:35:13.339Z,21.95
2018-03-11T03:37:43.990Z,21.40
2018-03-11T03:43:06.607Z,20.20
2018-03-11T03:45:36.627Z,21.90
2018-03-11T03:48:06.547Z,21.80
2018-03-11T03:50:36.356Z,22.23
2018-03-11T03:53:07.110Z,22.48
2018-03-11T03:55:36.700Z,20.15
2018-03-11T03:58:07.118Z,20.48
2018-03-11T04:00:37.832Z,20.55
2018-03-11T04:03:07.706Z,22.52
2018-03-11T04:05:38.625Z,22.08
2018-03-11T04:08:09.046Z,21.37
2018-03-11T04:10:40.262Z,23.12
2018-03-11T04:13:10.121Z,23.55
2018-03-11T04:15:40.523Z,23.65
2018-03-11T04:18:11.146Z,23.60
2018-03-11T04:20:41.209Z,25.15
2018-03-11T04:23:10.614Z,24.67
2018-03-11T04:25:40.741Z,25.10
2018-03-11T04:28:12.911Z,22.55
2018-03-11T04:30:42.702Z,24.37
2018-03-11T04:33:12.360Z,20.92
2018-03-11T04:35:42.270Z,21.52
2018-03-11T04:38:12.326Z,21.40
2018-03-11T04:40:43.323Z,22.13
2018-03-11T04:43:13.965Z,19.95
2018-03-11T04:45:43.598Z,21.58
2018-03-11T04:48:13.836Z,22.35
2018-03-11T04:50:43.344Z,21.50
2018-03-11T04:53:13.025Z,21.27
2018-03-11T04:55:43.568Z,21.80
2018-03-11T04:58:14.070Z,21.27
2018-03-11T05:00:44.016Z,23.15
2018-03-11T05:03:13.786Z,22.95
2018-03-11T05:05:43.479Z,24.77
2018-03-11T05:08:12.850Z,26.62
2018-03-11T05:10:42.414Z,25.77
2018-03-11T05:13:11.932Z,25.98
2018-03-11T05:15:41.362Z,25.40
2018-03-11T05:18:11.227Z,24.95
2018-03-11T05:20:40.607Z,26.58
2018-03-11T05:23:10.562Z,24.40
2018-03-11T05:25:41.072Z,23.90
2018-03-11T05:28:13.249Z,23.30
2018-03-11T05:30:44.647Z,19.33
2018-03-11T05:33:24.085Z,18.73
2018-03-11T05:35:53.976Z,19.45
2018-03-11T05:38:23.720Z,19.10
2018-03-11T05:40:53.380Z,18.08
2018-03-11T05:43:22.930Z,17.58
2018-03-11T05:45:52.494Z,27.25
2018-03-11T05:48:22.551Z,32.03
2018-03-11T05:50:52.550Z,28.85
2018-03-11T05:53:22.200Z,29.48
2018-03-11T05:55:52.310Z,32.35
2018-03-11T05:58:22.185Z,31.98
2018-03-11T06:00:52.773Z,33.50
2018-03-11T06:03:22.700Z,32.17
2018-03-11T06:05:52.669Z,32.80
2018-03-11T06:08:22.649Z,31.75
2018-03-11T06:10:53.642Z,29.60
2018-03-11T06:13:23.730Z,29.85
2018-03-11T06:15:53.706Z,27.95
2018-03-11T06:18:24.724Z,25.67
2018-03-11T06:20:54.260Z,25.25
2018-03-11T06:23:24.707Z,29.90
2018-03-11T06:25:55.194Z,29.35
2018-03-11T06:28:25.600Z,30.08
2018-03-11T06:30:55.597Z,25.20
2018-03-11T06:33:26.159Z,25.48
2018-03-11T06:35:57.337Z,24.02
2018-03-11T06:38:27.836Z,25.65
2018-03-11T06:40:58.673Z,25.05
2018-03-11T06:43:30.004Z,24.30
2018-03-11T06:46:00.495Z,24.50
2018-03-11T06:48:30.984Z,23.65
